createdAt,value
2017-10-18T00:01:00.713Z,16.27
2017-10-18T00:03:28.223Z,21.23
2017-10-18T00:05:55.684Z,12.07
2017-10-18T00:08:23.264Z,22.60
2017-10-18T00:10:50.743Z,13.67
2017-10-18T00:13:18.317Z,14.20
2017-10-18T00:15:45.895Z,13.90
2017-10-18T00:18:13.378Z,16.47
2017-10-18T00:20:40.834Z,15.97
2017-10-18T00:23:09.147Z,16.30
2017-10-18T00:25:37.373Z,19.90
2017-10-18T00:28:04.907Z,11.90
2017-10-18T00:30:32.446Z,13.33
2017-10-18T00:32:59.898Z,16.10
2017-10-18T00:35:27.441Z,13.27
2017-10-18T00:37:55.059Z,15.90
2017-10-18T00:40:22.532Z,15.30
2017-10-18T00:42:49.988Z,12.70
2017-10-18T00:45:17.545Z,12.73
2017-10-18T00:47:45.765Z,14.63
2017-10-18T00:50:13.221Z,15.57
2017-10-18T00:52:41.526Z,15.90
2017-10-18T00:55:09.766Z,17.53
2017-10-18T00:57:37.222Z,13.73
2017-10-18T01:00:05.596Z,10.13
2017-10-18T01:02:33.835Z,12.40
2017-10-18T01:05:01.328Z,11.20
2017-10-18T01:07:28.880Z,13.70
2017-10-18T01:09:57.116Z,15.00
2017-10-18T01:12:24.652Z,11.87
2017-10-18T01:14:52.229Z,16.77
2017-10-18T01:17:19.704Z,13.90
2017-10-18T01:19:47.173Z,15.47
2017-10-18T01:22:14.737Z,13.00
2017-10-18T01:24:42.207Z,10.57
2017-10-18T01:27:09.670Z,11.23
2017-10-18T01:29:37.988Z,12.17
2017-10-18T01:32:06.219Z,15.00
2017-10-18T01:34:33.691Z,11.27
2017-10-18T01:37:01.241Z,14.90
2017-10-18T01:39:28.697Z,12.20
2017-10-18T01:41:56.166Z,10.33
2017-10-18T01:44:23.726Z,15.13
2017-10-18T01:46:51.972Z,14.93
2017-10-18T01:49:19.459Z,13.57
2017-10-18T01:51:47.575Z,12.27
2017-10-18T01:54:15.046Z,12.53
2017-10-18T01:56:42.507Z,10.70
2017-10-18T01:59:10.073Z,15.20
2017-10-18T02:01:38.325Z,12.43
2017-10-18T02:04:05.853Z,11.60
2017-10-18T02:06:33.376Z,13.33
2017-10-18T02:09:00.846Z,11.83
2017-10-18T02:11:28.368Z,13.27
2017-10-18T02:13:55.829Z,10.00
2017-10-18T02:16:23.383Z,10.73
2017-10-18T02:18:50.863Z,11.93
2017-10-18T02:21:18.373Z,13.50
2017-10-18T02:23:45.921Z,14.67
2017-10-18T02:26:13.383Z,12.27
2017-10-18T02:28:40.850Z,12.77
2017-10-18T02:31:09.162Z,16.80
2017-10-18T02:33:37.382Z,12.30
2017-10-18T02:36:04.843Z,13.10
2017-10-18T02:38:33.197Z,13.07
2017-10-18T02:41:00.690Z,15.40
2017-10-18T02:43:28.163Z,13.33
2017-10-18T02:45:55.712Z,15.37
2017-10-18T02:48:23.181Z,15.77
2017-10-18T02:50:50.645Z,12.53
2017-10-18T02:53:18.218Z,18.57
2017-10-18T02:55:45.675Z,12.73
2017-10-18T02:58:13.147Z,14.80
2017-10-18T03:00:40.700Z,13.80
2017-10-18T03:03:08.948Z,18.93
2017-10-18T03:05:36.423Z,14.03
2017-10-18T03:08:04.747Z,16.73
2017-10-18T03:10:32.209Z,17.00
2017-10-18T03:12:59.672Z,16.57
2017-10-18T03:15:27.965Z,12.17
2017-10-18T03:17:55.431Z,14.87
2017-10-18T03:20:22.994Z,22.63
2017-10-18T03:22:50.468Z,16.73
2017-10-18T03:25:17.952Z,16.30
2017-10-18T03:27:46.289Z,16.77
2017-10-18T03:30:13.757Z,16.90
2017-10-18T03:32:41.235Z,25.97
2017-10-18T03:35:08.760Z,15.20
2017-10-18T03:37:36.314Z,18.77
2017-10-18T03:40:03.847Z,15.33
2017-10-18T03:42:32.099Z,18.27
2017-10-18T03:44:59.634Z,13.07
2017-10-18T03:47:27.929Z,15.33
2017-10-18T03:49:55.394Z,14.60
2017-10-18T03:52:22.966Z,19.73
2017-10-18T03:54:50.437Z,22.30
2017-10-18T03:57:17.944Z,17.87
2017-10-18T03:59:45.524Z,15.63
2017-10-18T04:02:12.984Z,38.30
2017-10-18T04:04:40.485Z,17.10
2017-10-18T04:07:08.136Z,20.27
2017-10-18T04:09:35.646Z,22.10
2017-10-18T04:12:03.204Z,18.57
2017-10-18T04:14:30.696Z,17.23
2017-10-18T04:16:58.163Z,17.83
2017-10-18T04:19:26.501Z,23.20
2017-10-18T04:21:54.007Z,18.30
2017-10-18T04:24:21.487Z,15.40
2017-10-18T04:26:49.006Z,16.87
2017-10-18T04:29:18.014Z,18.43
2017-10-18T04:31:46.398Z,20.57
2017-10-18T04:34:13.872Z,18.93
2017-10-18T04:36:42.102Z,22.57
2017-10-18T04:39:09.677Z,20.63
2017-10-18T04:41:37.157Z,20.63
2017-10-18T04:44:04.616Z,17.93
2017-10-18T04:46:32.205Z,16.93
2017-10-18T04:48:59.693Z,16.37
2017-10-18T04:51:27.922Z,17.00
2017-10-18T04:53:56.208Z,13.80
2017-10-18T04:56:24.439Z,19.80
2017-10-18T04:58:51.957Z,14.43
2017-10-18T05:01:19.502Z,14.20
2017-10-18T05:03:47.077Z,15.70
2017-10-18T05:06:15.304Z,14.90
2017-10-18T05:08:43.539Z,21.60
2017-10-18T05:11:11.045Z,21.83
2017-10-18T05:13:38.541Z,15.07
2017-10-18T05:16:06.017Z,20.23
2017-10-18T05:18:33.565Z,16.70
2017-10-18T05:21:01.018Z,19.77
2017-10-18T05:23:28.496Z,20.93
2017-10-18T05:25:56.830Z,21.90
2017-10-18T05:28:24.303Z,17.63
2017-10-18T05:30:51.788Z,19.13
2017-10-18T05:33:19.359Z,17.80
2017-10-18T05:35:46.867Z,26.10
2017-10-18T05:38:15.205Z,24.53
2017-10-18T05:40:42.699Z,18.33
2017-10-18T05:43:10.926Z,17.97
2017-10-18T05:45:39.229Z,19.43
2017-10-18T05:48:06.938Z,21.47
2017-10-18T05:50:34.418Z,22.70
2017-10-18T05:53:01.891Z,26.37
2017-10-18T05:55:29.432Z,21.53
2017-10-18T05:58:03.751Z,23.87
2017-10-18T06:00:31.301Z,18.50
2017-10-18T06:02:58.824Z,20.33
2017-10-18T06:05:26.407Z,18.83
2017-10-18T06:07:53.883Z,16.43
2017-10-18T06:10:21.390Z,22.07
2017-10-18T06:12:48.950Z,19.57
2017-10-18T06:15:16.447Z,23.97
2017-10-18T06:17:43.907Z,19.43
2017-10-18T06:20:11.447Z,22.93
2017-10-18T06:22:39.795Z,41.80
2017-10-18T06:25:07.304Z,17.23
2017-10-18T06:27:34.895Z,44.73
2017-10-18T06:30:02.382Z,22.40
2017-10-18T06:32:29.856Z,25.90
2017-10-18T06:34:57.430Z,24.20
2017-10-18T06:37:24.896Z,14.77
2017-10-18T06:39:52.379Z,21.13
2017-10-18T06:42:20.051Z,37.03
2017-10-18T06:44:47.540Z,19.93
2017-10-18T06:47:15.971Z,16.20
2017-10-18T06:49:43.585Z,14.60
2017-10-18T06:52:11.051Z,16.20
2017-10-18T06:54:39.310Z,17.33
2017-10-18T06:57:06.998Z,15.23
2017-10-18T06:59:34.473Z,11.97
2017-10-18T07:02:01.942Z,19.10
2017-10-18T07:04:29.493Z,13.87
2017-10-18T07:06:57.834Z,21.50
2017-10-18T07:09:25.309Z,12.30
2017-10-18T07:11:52.889Z,15.57
2017-10-18T07:14:20.377Z,17.00
2017-10-18T07:16:48.074Z,12.27
2017-10-18T07:19:15.611Z,15.47
2017-10-18T07:21:43.088Z,14.60
2017-10-18T07:24:10.698Z,16.83
2017-10-18T07:26:38.962Z,17.53
2017-10-18T07:29:06.584Z,15.07
2017-10-18T07:31:34.059Z,16.47
2017-10-18T07:34:01.617Z,10.67
2017-10-18T07:36:29.097Z,14.07
2017-10-18T07:38:56.579Z,16.90
2017-10-18T07:41:24.166Z,14.53
2017-10-18T07:43:51.646Z,22.10
2017-10-18T07:46:19.137Z,13.33
2017-10-18T07:48:48.135Z,14.57
2017-10-18T07:51:15.664Z,21.37
2017-10-18T07:53:43.905Z,26.27
2017-10-18T07:56:11.470Z,10.40
2017-10-18T07:58:38.976Z,11.63
2017-10-18T08:01:06.709Z,12.23
2017-10-18T08:03:34.979Z,13.03
2017-10-18T08:06:02.615Z,17.33
2017-10-18T08:08:30.205Z,12.10
2017-10-18T08:10:57.765Z,19.80
2017-10-18T08:13:25.348Z,18.53
2017-10-18T08:15:53.780Z,10.57
2017-10-18T08:18:21.322Z,11.27
2017-10-18T08:20:48.793Z,13.10
2017-10-18T08:23:16.355Z,15.17
2017-10-18T08:25:44.716Z,13.37
2017-10-18T08:28:12.224Z,15.90
2017-10-18T08:30:39.804Z,13.63
2017-10-18T08:33:07.409Z,15.17
2017-10-18T08:35:34.900Z,14.10
2017-10-18T08:38:02.807Z,15.20
2017-10-18T08:40:30.413Z,15.50
2017-10-18T08:42:58.790Z,15.50
2017-10-18T08:45:27.204Z,11.40
2017-10-18T08:47:54.684Z,15.83
2017-10-18T08:50:22.163Z,17.97
2017-10-18T08:52:49.740Z,13.93
2017-10-18T08:55:17.223Z,22.40
2017-10-18T08:57:44.713Z,12.83
2017-10-18T09:00:12.696Z,17.93
2017-10-18T09:02:39.865Z,17.43
2017-10-18T09:05:07.383Z,15.87
2017-10-18T09:07:34.935Z,14.80
2017-10-18T09:10:03.183Z,13.93
2017-10-18T09:12:30.649Z,19.07
2017-10-18T09:14:58.226Z,17.13
2017-10-18T09:17:26.506Z,16.87
2017-10-18T09:19:54.025Z,14.67
2017-10-18T09:22:21.622Z,16.57
2017-10-18T09:24:49.087Z,21.47
2017-10-18T09:27:16.563Z,17.50
2017-10-18T09:29:44.131Z,20.60
2017-10-18T09:32:11.606Z,21.17
2017-10-18T09:34:39.123Z,20.23
2017-10-18T09:37:06.724Z,25.90
2017-10-18T09:39:35.016Z,19.00
2017-10-18T09:42:02.496Z,22.03
2017-10-18T09:44:30.078Z,20.60
2017-10-18T09:46:57.635Z,21.00
2017-10-18T09:49:25.961Z,18.10
2017-10-18T09:51:54.205Z,23.80
2017-10-18T09:54:21.731Z,17.17
2017-10-18T09:56:49.305Z,21.87
2017-10-18T09:59:16.787Z,23.47
2017-10-18T10:01:44.250Z,26.47
2017-10-18T10:04:11.830Z,26.57
2017-10-18T10:06:40.075Z,18.30
2017-10-18T10:09:07.605Z,15.80
2017-10-18T10:11:36.047Z,16.50
2017-10-18T10:14:03.512Z,25.40
2017-10-18T10:16:31.025Z,21.80
2017-10-18T10:18:58.598Z,15.20
2017-10-18T10:21:26.081Z,24.50
2017-10-18T10:23:53.635Z,19.30
2017-10-18T10:26:21.255Z,24.40
2017-10-18T10:28:48.714Z,18.93
2017-10-18T10:31:16.952Z,27.43
2017-10-18T10:33:44.548Z,19.87
2017-10-18T10:36:12.123Z,24.23
2017-10-18T10:38:39.621Z,19.23
2017-10-18T10:41:07.310Z,21.37
2017-10-18T10:43:34.827Z,17.17
2017-10-18T10:46:03.109Z,26.20
2017-10-18T10:48:31.489Z,25.43
2017-10-18T10:50:59.049Z,15.03
2017-10-18T10:53:26.523Z,23.10
2017-10-18T10:55:54.044Z,13.77
2017-10-18T10:58:21.534Z,17.23
2017-10-18T11:00:49.103Z,17.30
2017-10-18T11:03:16.931Z,18.43
2017-10-18T11:05:45.206Z,14.23
2017-10-18T11:08:12.761Z,19.37
2017-10-18T11:10:40.235Z,20.00
2017-10-18T11:13:08.591Z,18.80
2017-10-18T11:15:36.224Z,16.90
2017-10-18T11:18:04.535Z,20.77
2017-10-18T11:20:32.026Z,18.60
2017-10-18T11:22:59.590Z,19.33
2017-10-18T11:25:27.084Z,22.90
2017-10-18T11:27:55.333Z,18.90
2017-10-18T11:30:22.870Z,22.50
2017-10-18T11:32:50.333Z,21.60
2017-10-18T11:35:17.880Z,23.60
2017-10-18T11:37:45.359Z,17.77
2017-10-18T11:40:12.852Z,20.63
2017-10-18T11:42:40.527Z,20.47
2017-10-18T11:45:08.756Z,22.80
2017-10-18T11:47:36.279Z,20.20
2017-10-18T11:50:03.753Z,26.60
2017-10-18T11:52:31.389Z,17.80
2017-10-18T11:54:59.646Z,18.07
2017-10-18T11:57:27.155Z,17.53
2017-10-18T11:59:54.774Z,24.60
2017-10-18T12:02:22.253Z,22.47
2017-10-18T12:04:49.770Z,20.23
2017-10-18T12:07:17.308Z,17.30
2017-10-18T12:09:44.890Z,15.10
2017-10-18T12:12:13.122Z,15.90
2017-10-18T12:14:41.467Z,17.73
2017-10-18T12:17:09.005Z,14.00
2017-10-18T12:19:37.414Z,19.17
2017-10-18T12:22:04.888Z,15.10
2017-10-18T12:24:33.145Z,21.00
2017-10-18T12:27:00.724Z,14.63
2017-10-18T12:29:28.291Z,26.00
2017-10-18T12:31:56.514Z,25.00
2017-10-18T12:34:24.097Z,23.70
2017-10-18T12:36:51.565Z,21.10
2017-10-18T12:39:19.031Z,25.20
2017-10-18T12:41:46.611Z,22.03
2017-10-18T12:44:14.088Z,17.40
2017-10-18T12:46:41.555Z,19.23
2017-10-18T12:49:09.147Z,23.73
2017-10-18T12:51:37.380Z,15.67
2017-10-18T12:54:04.852Z,24.40
2017-10-18T12:56:32.632Z,23.83
2017-10-18T12:59:00.096Z,17.10
2017-10-18T13:01:28.527Z,18.20
2017-10-18T13:03:56.088Z,12.50
2017-10-18T13:06:24.323Z,15.87
2017-10-18T13:08:51.785Z,16.03
2017-10-18T13:11:19.379Z,13.00
2017-10-18T13:13:47.780Z,16.43
2017-10-18T13:16:16.015Z,17.10
2017-10-18T13:18:43.562Z,19.57
2017-10-18T13:21:11.799Z,14.53
2017-10-18T13:23:39.284Z,20.63
2017-10-18T13:26:06.894Z,12.90
2017-10-18T13:28:34.481Z,12.60
2017-10-18T13:31:01.994Z,16.50
2017-10-18T13:33:29.544Z,17.00
2017-10-18T13:35:57.033Z,19.53
2017-10-18T13:38:25.290Z,17.13
2017-10-18T13:40:53.622Z,19.77
2017-10-18T13:43:21.137Z,18.63
2017-10-18T13:45:48.612Z,23.47
2017-10-18T13:48:16.188Z,18.10
2017-10-18T13:50:44.549Z,13.83
2017-10-18T13:53:12.020Z,12.33
2017-10-18T13:55:39.605Z,17.73
2017-10-18T13:58:07.072Z,18.70
2017-10-18T14:00:35.097Z,13.87
2017-10-18T14:03:02.659Z,17.90
2017-10-18T14:05:30.138Z,15.83
2017-10-18T14:07:57.611Z,12.97
2017-10-18T14:10:25.201Z,11.27
2017-10-18T14:12:53.429Z,12.60
2017-10-18T14:15:21.013Z,18.43
2017-10-18T14:17:48.590Z,10.67
2017-10-18T14:20:16.108Z,13.43
2017-10-18T14:22:43.586Z,15.17
2017-10-18T14:25:11.184Z,11.40
2017-10-18T14:27:38.695Z,15.10
2017-10-18T14:30:06.176Z,11.90
2017-10-18T14:32:33.713Z,19.67
2017-10-18T14:35:01.283Z,15.43
2017-10-18T14:37:29.051Z,16.83
2017-10-18T14:39:59.478Z,16.50
2017-10-18T14:42:27.377Z,15.00
2017-10-18T14:44:56.436Z,15.73
2017-10-18T14:47:24.552Z,14.47
2017-10-18T14:49:54.216Z,20.27
2017-10-18T14:52:23.164Z,14.53
2017-10-18T14:54:51.185Z,17.00
2017-10-18T14:57:19.566Z,15.83
2017-10-18T14:59:48.216Z,17.33
2017-10-18T15:02:16.732Z,10.83
2017-10-18T15:04:44.384Z,15.50
2017-10-18T15:07:13.473Z,17.93
2017-10-18T15:09:41.735Z,10.60
2017-10-18T15:12:09.843Z,16.30
2017-10-18T15:14:37.970Z,13.60
2017-10-18T15:17:05.978Z,17.40
2017-10-18T15:19:35.030Z,12.93
2017-10-18T15:22:03.149Z,11.10
2017-10-18T15:24:31.248Z,11.20
2017-10-18T15:26:59.305Z,20.03
2017-10-18T15:29:28.365Z,12.53
2017-10-18T15:31:56.702Z,16.87
2017-10-18T15:34:24.825Z,19.10
2017-10-18T15:36:52.883Z,16.70
2017-10-18T15:39:21.055Z,19.40
2017-10-18T15:41:49.193Z,19.40
2017-10-18T15:44:17.140Z,23.87
2017-10-18T15:46:46.481Z,23.33
2017-10-18T15:49:15.110Z,20.93
2017-10-18T15:51:43.062Z,26.47
2017-10-18T15:54:11.097Z,29.70
2017-10-18T15:56:39.087Z,21.43
2017-10-18T15:59:07.223Z,16.93
2017-10-18T16:01:35.162Z,25.00
2017-10-18T16:04:03.377Z,28.17
2017-10-18T16:06:31.464Z,21.50
2017-10-18T16:08:59.397Z,22.00
2017-10-18T16:11:27.677Z,17.80
2017-10-18T16:13:55.454Z,18.90
2017-10-18T16:16:23.857Z,17.00
2017-10-18T16:18:52.148Z,20.90
2017-10-18T16:21:21.298Z,20.70
2017-10-18T16:23:50.376Z,36.07
2017-10-18T16:26:18.456Z,23.47
2017-10-18T16:28:46.388Z,28.47
2017-10-18T16:31:14.573Z,19.53
2017-10-18T16:33:43.591Z,20.50
2017-10-18T16:36:11.654Z,25.27
2017-10-18T16:38:40.028Z,21.80
2017-10-18T16:41:08.129Z,26.33
2017-10-18T16:43:36.433Z,26.47
2017-10-18T16:46:04.398Z,25.53
2017-10-18T16:48:33.012Z,22.23
2017-10-18T16:51:01.086Z,24.53
2017-10-18T16:53:29.036Z,24.33
2017-10-18T16:55:56.918Z,23.10
2017-10-18T16:58:25.119Z,25.73
2017-10-18T17:00:53.323Z,27.13
2017-10-18T17:03:22.025Z,29.33
2017-10-18T17:05:50.008Z,22.63
2017-10-18T17:08:18.025Z,24.27
2017-10-18T17:10:47.029Z,22.83
2017-10-18T17:13:14.790Z,25.17
2017-10-18T17:15:43.001Z,25.90
2017-10-18T17:18:11.136Z,24.37
2017-10-18T17:23:18.089Z,32.47
2017-10-18T17:25:46.941Z,30.10
2017-10-18T17:28:14.491Z,35.90
2017-10-18T17:30:43.077Z,27.50
2017-10-18T17:33:10.957Z,32.07
2017-10-18T17:35:38.637Z,28.03
2017-10-18T17:38:06.530Z,27.47
2017-10-18T17:40:34.161Z,32.27
2017-10-18T17:43:01.924Z,37.13
2017-10-18T17:45:29.844Z,29.63
2017-10-18T17:47:57.992Z,43.00
2017-10-18T17:50:26.333Z,32.20
2017-10-18T17:52:54.200Z,38.97
2017-10-18T17:55:22.854Z,31.03
2017-10-18T17:57:50.699Z,32.63
2017-10-18T18:00:19.539Z,37.40
2017-10-18T18:02:47.170Z,31.47
2017-10-18T18:05:14.850Z,41.60
2017-10-18T18:07:43.433Z,40.30
2017-10-18T18:10:12.559Z,37.67
2017-10-18T18:12:40.162Z,44.03
2017-10-18T18:15:07.987Z,39.90
2017-10-18T18:17:36.005Z,45.43
2017-10-18T18:20:03.681Z,48.17
2017-10-18T18:22:31.227Z,31.53
2017-10-18T18:24:58.894Z,45.73
2017-10-18T18:27:26.388Z,44.50
2017-10-18T18:29:54.040Z,46.17
2017-10-18T18:32:22.822Z,39.10
2017-10-18T18:34:50.331Z,48.07
2017-10-18T18:37:18.025Z,49.90
2017-10-18T18:39:45.556Z,41.20
2017-10-18T18:42:13.091Z,47.53
2017-10-18T18:44:40.658Z,40.47
2017-10-18T18:47:08.345Z,43.53
2017-10-18T18:49:36.052Z,54.60
2017-10-18T18:52:03.688Z,50.47
2017-10-18T18:54:31.247Z,49.50
2017-10-18T18:56:58.872Z,47.07
2017-10-18T18:59:26.437Z,44.43
2017-10-18T19:01:53.947Z,45.90
2017-10-18T19:04:23.378Z,39.73
2017-10-18T19:06:51.733Z,45.00
2017-10-18T19:09:19.315Z,44.20
2017-10-18T19:11:46.873Z,39.20
2017-10-18T19:14:14.435Z,46.67
2017-10-18T19:16:42.036Z,44.30
2017-10-18T19:19:09.569Z,55.43
2017-10-18T19:21:37.175Z,42.03
2017-10-18T19:24:05.540Z,49.10
2017-10-18T19:26:33.153Z,53.23
2017-10-18T19:29:00.928Z,55.03
2017-10-18T19:31:28.528Z,42.53
2017-10-18T19:33:56.076Z,48.40
2017-10-18T19:36:23.620Z,46.63
2017-10-18T19:38:51.156Z,50.83
2017-10-18T19:41:18.741Z,42.83
2017-10-18T19:43:46.292Z,48.60
2017-10-18T19:46:13.877Z,35.77
2017-10-18T19:48:41.383Z,40.03
2017-10-18T19:51:09.709Z,39.37
2017-10-18T19:53:37.261Z,36.93
2017-10-18T19:56:04.812Z,40.23
2017-10-18T19:58:32.313Z,41.60
2017-10-18T20:00:59.980Z,38.60
2017-10-18T20:03:27.536Z,40.00
2017-10-18T20:05:55.056Z,39.13
2017-10-18T20:08:22.543Z,37.27
2017-10-18T20:10:50.053Z,45.23
2017-10-18T20:13:17.644Z,43.83
2017-10-18T20:15:45.157Z,36.83
2017-10-18T20:18:13.250Z,40.83
2017-10-18T20:20:40.831Z,42.97
2017-10-18T20:23:08.487Z,42.17
2017-10-18T20:25:36.943Z,35.30
2017-10-18T20:28:04.557Z,40.40
2017-10-18T20:30:32.092Z,40.50
2017-10-18T20:32:59.597Z,38.90
2017-10-18T20:35:27.109Z,38.43
2017-10-18T20:37:54.677Z,41.63
2017-10-18T20:40:22.319Z,50.70
2017-10-18T20:42:50.605Z,42.23
2017-10-18T20:45:18.102Z,40.33
2017-10-18T20:47:46.438Z,39.20
2017-10-18T20:50:13.979Z,38.00
2017-10-18T20:52:41.509Z,38.33
2017-10-18T20:55:09.837Z,32.17
2017-10-18T20:57:37.350Z,33.20
2017-10-18T21:00:04.867Z,39.90
2017-10-18T21:02:32.371Z,33.57
2017-10-18T21:05:00.627Z,37.93
2017-10-18T21:07:28.206Z,38.07
2017-10-18T21:09:55.728Z,44.13
2017-10-18T21:12:23.281Z,35.33
2017-10-18T21:14:50.866Z,40.73
2017-10-18T21:17:18.366Z,42.73
2017-10-18T21:19:45.906Z,34.93
2017-10-18T21:22:14.160Z,37.13
2017-10-18T21:24:41.700Z,38.90
2017-10-18T21:27:09.184Z,45.20
2017-10-18T21:29:36.776Z,38.90
2017-10-18T21:32:04.281Z,41.17
2017-10-18T21:34:31.837Z,36.07
2017-10-18T21:36:59.371Z,35.00
2017-10-18T21:39:26.897Z,41.70
2017-10-18T21:41:54.392Z,38.40
2017-10-18T21:44:21.993Z,40.10
2017-10-18T21:46:49.581Z,32.23
2017-10-18T21:49:17.085Z,34.27
2017-10-18T21:51:44.586Z,38.27
2017-10-18T21:54:12.092Z,37.93
2017-10-18T21:56:39.640Z,37.90
2017-10-18T21:59:07.152Z,29.60
2017-10-18T22:01:34.682Z,33.03
2017-10-18T22:04:02.172Z,33.30
2017-10-18T22:06:29.821Z,36.60
2017-10-18T22:08:57.298Z,37.00
2017-10-18T22:11:25.561Z,41.37
2017-10-18T22:13:53.053Z,39.60
2017-10-18T22:16:20.755Z,34.90
2017-10-18T22:18:48.261Z,39.57
2017-10-18T22:23:40.989Z,37.50
2017-10-18T22:26:08.650Z,36.40
2017-10-18T22:28:36.977Z,42.37
2017-10-18T22:31:05.274Z,36.40
2017-10-18T22:33:33.557Z,42.03
2017-10-18T22:36:01.100Z,31.70
2017-10-18T22:38:28.752Z,37.63
2017-10-18T22:40:56.233Z,37.03
2017-10-18T22:43:24.595Z,42.10
2017-10-18T22:45:52.117Z,35.00
2017-10-18T22:48:20.397Z,32.27
2017-10-18T22:50:47.895Z,41.77
2017-10-18T22:53:16.160Z,40.93
2017-10-18T22:55:43.729Z,36.90
2017-10-18T22:58:11.249Z,35.27
2017-10-18T23:00:38.777Z,36.90
2017-10-18T23:03:06.333Z,32.53
2017-10-18T23:05:33.856Z,35.97
2017-10-18T23:08:01.351Z,32.43
2017-10-18T23:10:28.897Z,30.70
2017-10-18T23:12:56.406Z,35.20
2017-10-18T23:15:23.913Z,30.83
2017-10-18T23:17:51.458Z,31.93
2017-10-18T23:20:18.990Z,34.17
2017-10-18T23:22:46.482Z,28.07
2017-10-18T23:25:14.110Z,31.13
2017-10-18T23:27:41.643Z,28.23
2017-10-18T23:30:09.129Z,28.73
2017-10-18T23:32:37.480Z,30.20
2017-10-18T23:35:04.998Z,28.03
2017-10-18T23:37:32.548Z,30.40
2017-10-18T23:40:00.041Z,34.77
2017-10-18T23:42:27.600Z,29.80
2017-10-18T23:44:55.083Z,32.97
2017-10-18T23:47:22.611Z,35.00
2017-10-18T23:49:50.112Z,32.87
2017-10-18T23:55:22.023Z,28.97
2017-10-18T23:57:49.559Z,32.00
